createdAt,value
2018-04-08T00:02:07.423Z,15.63
2018-04-08T00:04:34.967Z,15.23
2018-04-08T00:07:02.569Z,14.73
2018-04-08T00:09:30.115Z,14.77
2018-04-08T00:11:57.697Z,13.97
2018-04-08T00:14:26.019Z,16.13
2018-04-08T00:16:53.575Z,15.03
2018-04-08T00:19:21.173Z,13.87
2018-04-08T00:21:48.728Z,14.80
2018-04-08T00:24:16.349Z,14.20
2018-04-08T00:26:43.908Z,14.10
2018-04-08T00:29:32.090Z,14.80
2018-04-08T00:31:59.636Z,13.90
2018-04-08T00:34:27.195Z,13.77
2018-04-08T00:36:54.767Z,14.57
2018-04-08T00:39:22.319Z,15.40
2018-04-08T00:41:49.897Z,14.93
2018-04-08T00:44:17.440Z,14.67
2018-04-08T00:46:44.987Z,15.20
2018-04-08T00:49:12.601Z,15.77
2018-04-08T00:51:40.127Z,15.27
2018-04-08T00:54:19.520Z,16.30
2018-04-08T00:56:47.086Z,16.13
2018-04-08T00:59:14.663Z,16.10
2018-04-08T01:01:42.224Z,15.20
2018-04-08T01:04:09.783Z,14.70
2018-04-08T01:06:37.373Z,15.63
2018-04-08T01:09:05.803Z,14.83
2018-04-08T01:11:33.357Z,15.60
2018-04-08T01:14:00.932Z,14.83
2018-04-08T01:16:28.478Z,15.10
2018-04-08T01:18:56.047Z,14.57
2018-04-08T01:21:23.596Z,15.47
2018-04-08T01:23:51.151Z,16.20
2018-04-08T01:26:18.728Z,15.27
2018-04-08T01:28:47.056Z,14.93
2018-04-08T01:31:15.397Z,15.57
2018-04-08T01:33:42.973Z,13.67
2018-04-08T01:36:10.539Z,15.20
2018-04-08T01:38:38.105Z,15.93
2018-04-08T01:41:06.421Z,13.83
2018-04-08T01:43:34.003Z,14.83
2018-04-08T01:46:01.549Z,14.60
2018-04-08T01:48:29.095Z,14.43
2018-04-08T01:50:56.674Z,15.10
2018-04-08T01:53:24.235Z,14.63
2018-04-08T01:55:51.827Z,13.80
2018-04-08T01:58:19.415Z,13.33
2018-04-08T02:00:47.744Z,15.23
2018-04-08T02:03:15.336Z,14.90
2018-04-08T02:05:43.645Z,14.90
2018-04-08T02:08:11.249Z,15.10
2018-04-08T02:10:38.798Z,15.07
2018-04-08T02:13:07.114Z,14.20
2018-04-08T02:24:16.900Z,14.37
2018-04-08T02:26:44.505Z,14.67
2018-04-08T02:29:12.074Z,13.53
2018-04-08T02:31:39.628Z,13.60
2018-04-08T02:34:07.195Z,14.83
2018-04-08T02:36:38.134Z,14.40
2018-04-08T02:39:05.723Z,14.13
2018-04-08T02:41:33.283Z,14.03
2018-04-08T02:44:00.840Z,13.80
2018-04-08T02:46:28.431Z,14.23
2018-04-08T02:48:56.748Z,14.30
2018-04-08T02:51:24.363Z,14.90
2018-04-08T02:53:51.911Z,14.53
2018-04-08T02:56:19.503Z,13.50
2018-04-08T02:58:47.103Z,14.33
2018-04-08T03:01:14.653Z,14.60
2018-04-08T03:03:42.235Z,13.80
2018-04-08T03:06:10.547Z,15.80
2018-04-08T03:08:38.105Z,15.40
2018-04-08T03:11:06.451Z,14.43
2018-04-08T03:13:33.999Z,15.87
2018-04-08T03:16:01.597Z,15.13
2018-04-08T03:18:29.916Z,15.90
2018-04-08T03:20:57.462Z,14.67
2018-04-08T03:23:25.043Z,15.70
2018-04-08T03:25:52.592Z,14.30
2018-04-08T03:28:20.175Z,15.07
2018-04-08T03:30:47.750Z,14.90
2018-04-08T03:33:15.301Z,14.00
2018-04-08T03:35:42.869Z,14.97
2018-04-08T03:38:10.413Z,15.20
2018-04-08T03:40:38.759Z,15.50
2018-04-08T03:43:06.308Z,14.87
2018-04-08T03:45:33.862Z,14.23
2018-04-08T03:48:01.445Z,14.10
2018-04-08T03:50:29.001Z,14.77
2018-04-08T03:52:56.564Z,15.73
2018-04-08T03:55:24.144Z,14.07
2018-04-08T03:57:51.753Z,14.47
2018-04-08T04:00:19.280Z,14.20
2018-04-08T04:02:46.857Z,16.93
2018-04-08T04:05:15.178Z,14.83
2018-04-08T04:07:42.727Z,14.23
2018-04-08T04:10:10.303Z,15.70
2018-04-08T04:12:37.857Z,14.57
2018-04-08T04:15:05.421Z,14.63
2018-04-08T04:17:33.016Z,14.40
2018-04-08T04:20:12.501Z,14.93
2018-04-08T04:22:51.722Z,14.73
2018-04-08T04:25:31.232Z,14.23
2018-04-08T04:27:58.834Z,14.77
2018-04-08T04:30:26.385Z,15.10
2018-04-08T04:32:53.938Z,14.87
2018-04-08T04:35:22.280Z,14.10
2018-04-08T04:37:49.859Z,15.03
2018-04-08T04:40:18.182Z,14.83
2018-04-08T04:42:45.760Z,14.93
2018-04-08T04:45:13.320Z,15.57
2018-04-08T04:47:40.869Z,15.03
2018-04-08T04:50:08.456Z,14.97
2018-04-08T04:52:36.007Z,15.40
2018-04-08T04:55:03.555Z,15.53
2018-04-08T04:57:31.139Z,15.67
2018-04-08T04:59:58.690Z,15.27
2018-04-08T05:02:26.240Z,15.90
2018-04-08T05:04:53.827Z,14.60
2018-04-08T05:07:22.146Z,15.10
2018-04-08T05:09:49.691Z,16.30
2018-04-08T05:12:17.273Z,14.70
2018-04-08T05:14:45.615Z,14.77
2018-04-08T05:17:13.944Z,15.20
2018-04-08T05:19:41.550Z,14.23
2018-04-08T05:22:09.147Z,16.00
2018-04-08T05:24:36.703Z,15.33
2018-04-08T05:27:04.283Z,13.93
2018-04-08T05:29:31.834Z,14.17
2018-04-08T05:31:59.388Z,14.73
2018-04-08T05:34:26.970Z,15.53
2018-04-08T05:36:54.530Z,16.20
2018-04-08T05:39:22.110Z,15.50
2018-04-08T05:41:49.704Z,14.13
2018-04-08T05:44:17.263Z,15.30
2018-04-08T05:46:44.811Z,14.20
2018-04-08T05:49:12.442Z,14.53
2018-04-08T05:51:40.004Z,16.87
2018-04-08T05:54:07.580Z,15.83
2018-04-08T05:56:35.923Z,14.73
2018-04-08T05:59:03.476Z,17.20
2018-04-08T06:01:31.045Z,15.80
2018-04-08T06:03:58.633Z,15.30
2018-04-08T06:06:26.961Z,14.27
2018-04-08T06:08:54.582Z,13.83
2018-04-08T06:11:25.518Z,14.60
2018-04-08T06:13:53.841Z,14.97
2018-04-08T06:16:21.414Z,14.77
2018-04-08T06:18:49.032Z,14.77
2018-04-08T06:21:16.601Z,14.73
2018-04-08T06:23:44.148Z,15.70
2018-04-08T06:26:11.740Z,14.63
2018-04-08T06:28:39.301Z,15.90
2018-04-08T06:31:07.650Z,14.87
2018-04-08T06:33:35.219Z,14.40
2018-04-08T06:36:02.786Z,15.37
2018-04-08T06:38:30.332Z,16.20
2018-04-08T06:40:57.908Z,15.13
2018-04-08T06:43:25.486Z,14.70
2018-04-08T06:45:53.038Z,14.70
2018-04-08T06:48:20.617Z,14.83
2018-04-08T06:50:48.223Z,15.13
2018-04-08T06:53:15.792Z,14.13
2018-04-08T06:55:43.371Z,14.30
2018-04-08T06:58:11.015Z,15.40
2018-04-08T07:00:38.563Z,14.80
2018-04-08T07:03:06.143Z,13.67
2018-04-08T07:05:33.694Z,16.50
2018-04-08T07:08:01.398Z,14.93
2018-04-08T07:10:28.978Z,15.23
2018-04-08T07:12:57.299Z,14.30
2018-04-08T07:15:24.883Z,15.87
2018-04-08T07:17:52.527Z,13.70
2018-04-08T07:20:20.083Z,15.10
2018-04-08T07:22:47.642Z,13.60
2018-04-08T07:25:15.224Z,14.23
2018-04-08T07:27:42.799Z,14.53
2018-04-08T07:30:10.365Z,15.03
2018-04-08T07:32:37.957Z,14.33
2018-04-08T07:35:05.603Z,14.00
2018-04-08T07:37:33.998Z,13.80
2018-04-08T07:40:01.581Z,13.77
2018-04-08T07:42:29.142Z,14.23
2018-04-08T07:44:56.695Z,14.50
2018-04-08T07:47:24.276Z,12.70
2018-04-08T07:49:51.876Z,14.97
2018-04-08T07:52:20.202Z,15.13
2018-04-08T07:54:47.772Z,14.67
2018-04-08T07:57:15.340Z,13.67
2018-04-08T07:59:42.891Z,15.20
2018-04-08T08:02:10.475Z,14.10
2018-04-08T08:04:38.798Z,13.50
2018-04-08T08:07:10.154Z,13.97
2018-04-08T08:09:37.711Z,14.67
2018-04-08T08:12:05.478Z,14.70
2018-04-08T08:14:33.070Z,15.10
2018-04-08T08:17:02.674Z,15.17
2018-04-08T08:19:32.230Z,14.10
2018-04-08T08:21:59.796Z,13.77
2018-04-08T08:24:27.402Z,14.00
2018-04-08T08:26:55.012Z,13.97
2018-04-08T08:29:22.558Z,13.23
2018-04-08T08:31:50.185Z,13.33
2018-04-08T08:34:17.761Z,14.27
2018-04-08T08:36:46.095Z,14.07
2018-04-08T08:39:18.046Z,13.30
2018-04-08T08:41:48.677Z,15.30
2018-04-08T08:44:16.235Z,13.83
2018-04-08T08:46:43.803Z,13.80
2018-04-08T08:49:11.362Z,14.10
2018-04-08T08:51:38.927Z,13.07
2018-04-08T08:54:06.495Z,13.50
2018-04-08T08:56:55.517Z,14.47
2018-04-08T08:59:24.049Z,13.80
2018-04-08T09:01:52.619Z,13.23
2018-04-08T09:04:20.271Z,14.27
2018-04-08T09:06:47.868Z,13.57
2018-04-08T09:09:15.893Z,13.63
2018-04-08T09:11:43.479Z,13.30
2018-04-08T09:14:11.053Z,14.33
2018-04-08T09:16:39.591Z,13.90
2018-04-08T09:19:22.056Z,13.67
2018-04-08T09:24:52.129Z,12.93
2018-04-08T09:27:23.290Z,12.40
2018-04-08T09:29:50.856Z,15.00
2018-04-08T09:35:11.107Z,14.90
2018-04-08T09:37:39.668Z,14.27
2018-04-08T09:40:15.058Z,14.23
2018-04-08T09:42:47.177Z,14.30
2018-04-08T09:45:19.921Z,15.00
2018-04-08T09:47:50.887Z,14.57
2018-04-08T09:53:12.324Z,15.17
2018-04-08T09:55:41.942Z,16.10
2018-04-08T09:58:13.471Z,15.23
2018-04-08T10:03:49.063Z,15.10
2018-04-08T10:06:16.620Z,14.80
2018-04-08T10:08:44.192Z,14.90
2018-04-08T10:11:12.776Z,15.57
2018-04-08T10:13:46.541Z,14.53
2018-04-08T10:16:24.145Z,13.70
2018-04-08T10:18:51.725Z,12.70
2018-04-08T10:21:19.286Z,13.83
2018-04-08T10:23:46.880Z,14.40
2018-04-08T10:26:15.295Z,13.80
2018-04-08T10:28:42.857Z,13.97
2018-04-08T10:31:10.480Z,13.97
2018-04-08T10:33:38.833Z,11.70
2018-04-08T10:36:06.389Z,13.13
2018-04-08T10:38:33.987Z,13.33
2018-04-08T10:41:01.558Z,13.90
2018-04-08T10:43:29.131Z,13.80
2018-04-08T10:45:56.723Z,12.83
2018-04-08T10:48:24.295Z,13.13
2018-04-08T10:50:52.629Z,14.07
2018-04-08T10:53:20.211Z,13.93
2018-04-08T10:55:47.803Z,13.53
2018-04-08T10:58:16.240Z,14.13
2018-04-08T11:00:43.835Z,14.23
2018-04-08T11:03:11.436Z,13.00
2018-04-08T11:05:39.002Z,13.70
2018-04-08T11:08:06.602Z,12.43
2018-04-08T11:10:34.164Z,18.73
2018-04-08T11:13:01.744Z,22.90
2018-04-08T11:15:35.154Z,38.53
2018-04-08T11:18:07.941Z,14.27
2018-04-08T11:20:35.560Z,12.10
2018-04-08T11:23:03.120Z,14.60
2018-04-08T11:25:30.670Z,12.30
2018-04-08T11:27:58.481Z,13.20
2018-04-08T11:30:26.823Z,13.13
2018-04-08T11:33:07.824Z,12.57
2018-04-08T11:35:36.151Z,11.63
2018-04-08T11:38:03.743Z,10.70
2018-04-08T11:40:31.338Z,10.60
2018-04-08T11:42:58.898Z,12.00
2018-04-08T11:45:26.447Z,10.77
2018-04-08T11:47:54.785Z,11.10
2018-04-08T11:50:22.713Z,16.20
2018-04-08T11:52:50.318Z,18.20
2018-04-08T11:55:17.889Z,53.50
2018-04-08T11:57:45.448Z,35.90
2018-04-08T12:00:13.139Z,16.87
2018-04-08T12:02:40.747Z,9.50
2018-04-08T12:05:08.302Z,18.53
2018-04-08T12:07:35.884Z,12.90
2018-04-08T12:10:03.503Z,10.37
2018-04-08T12:12:31.084Z,8.97
2018-04-08T12:14:58.681Z,9.87
2018-04-08T12:17:27.036Z,10.83
2018-04-08T12:19:54.651Z,9.53
2018-04-08T12:22:22.209Z,10.07
2018-04-08T12:24:49.768Z,9.03
2018-04-08T12:27:17.339Z,8.27
2018-04-08T12:29:44.887Z,8.87
2018-04-08T12:32:12.477Z,9.20
2018-04-08T12:34:40.050Z,9.70
2018-04-08T12:37:07.597Z,10.70
2018-04-08T12:39:35.170Z,9.20
2018-04-08T12:42:02.743Z,9.73
2018-04-08T12:44:31.062Z,8.93
2018-04-08T12:46:58.644Z,10.43
2018-04-08T12:49:26.236Z,9.47
2018-04-08T12:51:54.585Z,9.00
2018-04-08T12:54:22.201Z,10.90
2018-04-08T12:56:50.524Z,9.50
2018-04-08T12:59:18.868Z,9.03
2018-04-08T13:01:58.891Z,8.40
2018-04-08T13:04:26.495Z,8.60
2018-04-08T13:06:54.059Z,8.13
2018-04-08T13:09:21.635Z,8.80
2018-04-08T13:11:49.271Z,7.77
2018-04-08T13:14:16.870Z,7.73
2018-04-08T13:16:44.439Z,8.90
2018-04-08T13:19:12.011Z,8.00
2018-04-08T13:21:44.964Z,9.93
2018-04-08T13:24:12.548Z,8.17
2018-04-08T13:26:40.096Z,8.40
2018-04-08T13:29:07.690Z,8.63
2018-04-08T13:34:29.636Z,7.60
2018-04-08T13:36:57.947Z,8.60
2018-04-08T13:39:25.617Z,8.50
2018-04-08T13:41:53.193Z,7.97
2018-04-08T13:44:20.739Z,7.37
2018-04-08T13:46:48.310Z,8.20
2018-04-08T13:49:15.867Z,8.80
2018-04-08T13:54:36.732Z,7.03
2018-04-08T13:57:05.053Z,7.73
2018-04-08T13:59:32.602Z,7.67
2018-04-08T14:02:00.172Z,8.03
2018-04-08T14:04:27.716Z,7.60
2018-04-08T14:06:55.285Z,7.80
2018-04-08T14:09:22.830Z,8.00
2018-04-08T14:11:50.378Z,6.60
2018-04-08T14:14:17.971Z,7.00
2018-04-08T14:16:50.150Z,6.07
2018-04-08T14:19:17.771Z,8.30
2018-04-08T14:24:38.352Z,6.90
2018-04-08T14:27:05.882Z,7.80
2018-04-08T14:29:33.423Z,7.57
2018-04-08T14:32:01.760Z,9.30
2018-04-08T14:34:30.082Z,9.83
2018-04-08T14:36:57.639Z,9.67
2018-04-08T14:39:25.242Z,8.03
2018-04-08T14:41:52.909Z,8.90
2018-04-08T14:44:21.280Z,8.20
2018-04-08T14:46:48.834Z,8.47
2018-04-08T14:49:16.392Z,8.97
2018-04-08T14:51:43.966Z,7.90
2018-04-08T14:57:05.560Z,8.87
2018-04-08T14:59:33.108Z,9.60
2018-04-08T15:02:00.673Z,10.10
2018-04-08T15:04:28.328Z,9.80
2018-04-08T15:06:55.917Z,8.40
2018-04-08T15:09:23.512Z,8.77
2018-04-08T15:14:45.050Z,8.73
2018-04-08T15:17:13.397Z,10.17
2018-04-08T15:19:40.972Z,9.07
2018-04-08T15:22:08.548Z,9.37
2018-04-08T15:24:36.868Z,9.17
2018-04-08T15:27:17.563Z,9.93
2018-04-08T15:29:45.136Z,8.70
2018-04-08T15:32:12.754Z,8.40
2018-04-08T15:34:46.130Z,7.83
2018-04-08T15:37:13.679Z,8.30
2018-04-08T15:39:41.265Z,7.97
2018-04-08T15:42:08.805Z,9.73
2018-04-08T15:44:36.354Z,8.40
2018-04-08T15:47:04.698Z,7.40
2018-04-08T15:49:32.246Z,7.50
2018-04-08T15:51:59.819Z,7.63
2018-04-08T15:54:27.358Z,8.60
2018-04-08T15:56:54.900Z,7.37
2018-04-08T15:59:22.515Z,7.87
2018-04-08T16:01:50.835Z,8.07
2018-04-08T16:04:18.389Z,8.03
2018-04-08T16:06:46.844Z,7.30
2018-04-08T16:09:14.468Z,7.80
2018-04-08T16:11:42.012Z,7.77
2018-04-08T16:14:09.601Z,6.30
2018-04-08T16:16:37.158Z,6.87
2018-04-08T16:19:04.705Z,6.63
2018-04-08T16:21:32.305Z,5.80
2018-04-08T16:23:59.858Z,5.43
2018-04-08T16:26:29.179Z,4.60
2018-04-08T16:28:56.758Z,5.23
2018-04-08T16:31:24.335Z,6.00
2018-04-08T16:33:51.909Z,4.97
2018-04-08T16:36:19.508Z,4.80
2018-04-08T16:38:47.077Z,4.90
2018-04-08T16:41:17.871Z,5.00
2018-04-08T16:43:45.719Z,5.03
2018-04-08T16:46:13.283Z,5.07
2018-04-08T16:48:40.890Z,5.17
2018-04-08T16:51:08.487Z,4.83
2018-04-08T16:53:37.462Z,5.07
2018-04-08T16:56:05.046Z,4.70
2018-04-08T16:58:33.390Z,5.80
2018-04-08T17:01:00.963Z,5.33
2018-04-08T17:03:38.911Z,5.40
2018-04-08T17:06:06.471Z,4.87
2018-04-08T17:08:34.018Z,4.77
2018-04-08T17:11:01.744Z,5.17
2018-04-08T17:13:29.314Z,5.70
2018-04-08T17:15:56.888Z,5.07
2018-04-08T17:18:24.423Z,5.37
2018-04-08T17:20:52.068Z,4.70
2018-04-08T17:23:19.662Z,4.80
2018-04-08T17:25:47.336Z,4.50
2018-04-08T17:28:14.806Z,4.90
2018-04-08T17:30:42.473Z,5.20
2018-04-08T17:33:10.061Z,5.50
2018-04-08T17:35:37.610Z,4.47
2018-04-08T17:38:05.927Z,4.77
2018-04-08T17:40:33.702Z,4.43
2018-04-08T17:43:01.357Z,4.67
2018-04-08T17:45:29.009Z,4.80
2018-04-08T17:47:56.592Z,4.57
2018-04-08T17:50:24.133Z,4.67
2018-04-08T17:52:51.712Z,4.67
2018-04-08T17:55:20.126Z,4.83
2018-04-08T17:57:50.491Z,5.00
2018-04-08T18:00:18.045Z,4.40
2018-04-08T18:02:45.610Z,5.00
2018-04-08T18:05:13.183Z,4.80
2018-04-08T18:07:40.775Z,4.83
2018-04-08T18:10:08.351Z,5.77
2018-04-08T18:12:36.724Z,5.10
2018-04-08T18:15:08.658Z,5.00
2018-04-08T18:17:36.239Z,5.40
2018-04-08T18:20:03.787Z,5.20
2018-04-08T18:22:32.350Z,6.00
2018-04-08T18:24:59.925Z,5.97
2018-04-08T18:27:28.304Z,5.43
2018-04-08T18:29:55.888Z,6.20
2018-04-08T18:32:24.233Z,5.80
2018-04-08T18:34:52.004Z,6.67
2018-04-08T18:37:22.368Z,6.67
2018-04-08T18:39:50.028Z,6.70
2018-04-08T18:42:19.871Z,6.40
2018-04-08T18:44:51.176Z,6.70
2018-04-08T18:47:21.438Z,6.87
2018-04-08T18:49:49.206Z,6.77
2018-04-08T18:52:20.640Z,6.30
2018-04-08T18:54:48.320Z,7.30
2018-04-08T18:57:15.883Z,6.73
2018-04-08T18:59:43.443Z,7.10
2018-04-08T19:02:11.010Z,8.07
2018-04-08T19:04:38.547Z,7.37
2018-04-08T19:07:06.090Z,6.80
2018-04-08T19:09:34.478Z,7.20
2018-04-08T19:12:02.019Z,6.30
2018-04-08T19:14:36.156Z,7.00
2018-04-08T19:17:03.712Z,7.90
2018-04-08T19:19:31.258Z,7.17
2018-04-08T19:21:59.590Z,6.87
2018-04-08T19:24:27.130Z,7.20
2018-04-08T19:26:54.671Z,7.20
2018-04-08T19:29:22.295Z,8.50
2018-04-08T19:31:49.838Z,8.07
2018-04-08T19:34:17.523Z,8.13
2018-04-08T19:36:59.422Z,8.07
2018-04-08T19:39:26.999Z,8.20
2018-04-08T19:41:54.556Z,8.80
2018-04-08T19:44:22.184Z,8.57
2018-04-08T19:46:49.809Z,8.23
2018-04-08T19:49:17.366Z,8.50
2018-04-08T19:51:44.940Z,7.90
2018-04-08T19:54:12.535Z,8.43
2018-04-08T19:56:40.967Z,8.03
2018-04-08T19:59:08.516Z,7.97
2018-04-08T20:01:36.088Z,8.03
2018-04-08T20:04:03.644Z,7.70
2018-04-08T20:06:31.200Z,9.13
2018-04-08T20:08:58.817Z,8.13
2018-04-08T20:11:26.338Z,7.67
2018-04-08T20:13:53.906Z,7.80
2018-04-08T20:16:21.464Z,8.03
2018-04-08T20:18:49.025Z,8.97
2018-04-08T20:21:16.606Z,8.03
2018-04-08T20:23:44.181Z,8.13
2018-04-08T20:26:12.522Z,7.37
2018-04-08T20:28:40.112Z,8.20
2018-04-08T20:31:08.431Z,7.67
2018-04-08T20:33:35.975Z,7.87
2018-04-08T20:36:03.551Z,8.13
2018-04-08T20:38:31.096Z,7.67
2018-04-08T20:40:58.640Z,7.70
2018-04-08T20:43:26.999Z,8.37
2018-04-08T20:45:55.331Z,9.40
2018-04-08T20:48:22.880Z,9.03
2018-04-08T20:50:50.468Z,9.13
2018-04-08T20:53:18.787Z,8.43
2018-04-08T20:55:47.109Z,8.20
2018-04-08T20:58:14.674Z,9.27
2018-04-08T21:00:42.223Z,8.40
2018-04-08T21:03:09.767Z,8.07
2018-04-08T21:05:37.346Z,8.67
2018-04-08T21:08:04.896Z,9.40
2018-04-08T21:10:32.452Z,9.10
2018-04-08T21:13:17.274Z,7.60
2018-04-08T21:15:45.588Z,8.70
2018-04-08T21:18:13.172Z,8.00
2018-04-08T21:20:40.715Z,8.60
2018-04-08T21:23:08.255Z,8.90
2018-04-08T21:25:43.609Z,8.97
2018-04-08T21:28:11.164Z,8.50
2018-04-08T21:30:38.745Z,8.67
2018-04-08T21:33:06.299Z,8.60
2018-04-08T21:35:33.847Z,8.97
2018-04-08T21:38:01.432Z,7.90
2018-04-08T21:40:29.756Z,8.47
2018-04-08T21:42:58.079Z,7.37
2018-04-08T21:45:25.674Z,8.37
2018-04-08T21:47:53.213Z,8.50
2018-04-08T21:50:20.763Z,8.20
2018-04-08T21:52:48.344Z,7.97
2018-04-08T21:58:10.452Z,8.27
2018-04-08T22:00:38.002Z,8.80
2018-04-08T22:03:05.547Z,8.67
2018-04-08T22:05:33.124Z,8.07
2018-04-08T22:08:00.715Z,8.70
2018-04-08T22:10:28.266Z,8.20
2018-04-08T22:12:55.859Z,8.53
2018-04-08T22:15:23.407Z,7.43
2018-04-08T22:17:50.944Z,8.37
2018-04-08T22:20:18.536Z,8.77
2018-04-08T22:22:46.113Z,7.97
2018-04-08T22:25:14.443Z,8.93
2018-04-08T22:27:42.008Z,7.90
2018-04-08T22:30:09.576Z,9.10
2018-04-08T22:32:37.157Z,8.60
2018-04-08T22:35:05.477Z,7.80
2018-04-08T22:37:33.056Z,7.70
2018-04-08T22:40:00.622Z,8.30
2018-04-08T22:42:28.171Z,8.00
2018-04-08T22:44:55.752Z,9.47
2018-04-08T22:47:23.312Z,7.93
2018-04-08T22:49:50.854Z,8.60
2018-04-08T22:52:18.427Z,7.80
2018-04-08T22:54:45.986Z,8.53
2018-04-08T22:57:13.536Z,8.70
2018-04-08T22:59:41.090Z,9.30
2018-04-08T23:02:08.648Z,8.80
2018-04-08T23:04:36.227Z,9.50
2018-04-08T23:07:03.770Z,9.30
2018-04-08T23:09:31.327Z,9.20
2018-04-08T23:11:58.896Z,9.20
2018-04-08T23:14:26.456Z,9.47
2018-04-08T23:16:54.010Z,9.23
2018-04-08T23:19:21.590Z,9.77
2018-04-08T23:21:49.150Z,10.10
2018-04-08T23:24:16.710Z,10.30
2018-04-08T23:26:44.281Z,9.43
2018-04-08T23:29:12.630Z,9.80
2018-04-08T23:31:40.178Z,11.87
2018-04-08T23:34:07.783Z,11.30
2018-04-08T23:36:36.116Z,10.40
2018-04-08T23:39:03.682Z,10.43
2018-04-08T23:41:31.299Z,9.80
2018-04-08T23:43:58.844Z,10.23
2018-04-08T23:46:27.184Z,10.87
2018-04-08T23:48:54.767Z,9.60
2018-04-08T23:51:23.083Z,9.60
2018-04-08T23:53:50.645Z,9.90
2018-04-08T23:56:18.240Z,9.47
2018-04-08T23:58:45.830Z,9.70
